サイパン島 の空港の天気 - METARとTAF

サイパン国際空港 ( PGSN / SPN ) - 北マリアナ諸島 サイパン島
飛行場実況気象(Metar)
観測時間10/19 08:54 ChST (10/18 22:54 UTC)
風向・風速北 5m/s
視程10km以上
天気現象
全天の4割程度の雲 雲底高度 3050m
気温27.8℃
湿度97%
気圧1011.9hPa
METARPGSN 182254Z 35009KT 10SM SCT100 28/27 A2982 RMK AO2 SLP119 T02780272
過去の天気等 Google飛行場航空写真 Wunderground天気予報

過去48時間のMETAR

飛行場予報(TAF)
発表時間: 10/19 03:28 ChST (10/18 17:28 UTC)
予報対象時間: 19日4時 ChST ~ 20日4時 ChST
風向・風速西北西 7m/s 瞬間風速 12m/s
視程10km以上
天気現象周辺でしゅう雨
全天の4割程度の雲 雲底高度 370m
全天の8割程度の雲 雲底高度 1,520m
全天を覆う雲 雲底高度 3,350m
19日4時 ChST ~ 19日8時 ChST に一時的に
風向・風速西 9m/s 瞬間風速 15m/s
視程4,830m
天気現象しゅう雨
全天の8割程度の雲 雲底高度 370m
全天を覆う雲 雲底高度 760m
19日11時 ChST から
風向・風速北西 6m/s 瞬間風速 11m/s
視程10km以上
天気現象周辺でしゅう雨
全天の4割程度の雲 雲底高度 460m
全天の4割程度の雲 雲底高度 760m
全天の8割程度の雲 雲底高度 3,660m
TAF PGSN 181728Z 1818/1918 29014G24KT P6SM VCSH SCT012 BKN050 OVC110
TEMPO 1818/1822 28018G30KT 3SM SHRA BKN012 OVC025
FM190100 31012G22KT P6SM VCSH SCT015 SCT025 BKN120